createdAt,value
2022-07-30T00:00:54.224Z,100115.16
2022-07-30T00:03:22.188Z,100108.91
2022-07-30T00:05:50.074Z,100112.88
2022-07-30T00:08:17.575Z,100106.38
2022-07-30T00:10:45.121Z,100110.47
2022-07-30T00:13:14.265Z,100107.97
2022-07-30T00:15:43.329Z,100106.16
2022-07-30T00:18:11.945Z,100113.09
2022-07-30T00:20:42.779Z,100110.41
2022-07-30T00:23:12.045Z,100116.78
2022-07-30T00:25:39.589Z,100107.25
2022-07-30T00:28:07.857Z,100097.81
2022-07-30T00:30:35.429Z,100106.06
2022-07-30T00:33:04.805Z,100096.72
2022-07-30T00:35:35.879Z,100095.78
2022-07-30T00:38:05.518Z,100089.66
2022-07-30T00:40:33.100Z,100094.50
2022-07-30T00:43:00.709Z,100093.03
2022-07-30T00:45:28.623Z,100084.03
2022-07-30T00:47:56.174Z,100087.31
2022-07-30T00:50:25.060Z,100081.69
2022-07-30T00:52:52.634Z,100073.97
2022-07-30T00:55:20.374Z,100072.81
2022-07-30T00:57:47.934Z,100068.91
2022-07-30T01:00:17.257Z,100071.00
2022-07-30T01:02:44.861Z,100068.66
2022-07-30T01:05:13.145Z,100073.31
2022-07-30T01:07:45.042Z,100075.41
2022-07-30T01:10:14.210Z,100070.22
2022-07-30T01:12:42.503Z,100063.63
2022-07-30T01:15:11.223Z,100061.34
2022-07-30T01:17:39.026Z,100060.06
2022-07-30T01:20:10.968Z,100060.09
2022-07-30T01:22:48.973Z,100058.66
2022-07-30T01:25:20.213Z,100053.50
2022-07-30T01:27:51.871Z,100050.03
2022-07-30T01:30:22.144Z,100049.09
2022-07-30T01:32:50.569Z,100045.31
2022-07-30T01:35:19.858Z,100044.53
2022-07-30T01:37:48.054Z,100049.47
2022-07-30T01:40:16.091Z,100041.56
2022-07-30T01:42:47.306Z,100047.31
2022-07-30T01:45:16.957Z,100053.44
2022-07-30T01:47:44.775Z,100051.13
2022-07-30T01:50:14.304Z,100053.97
2022-07-30T01:52:44.644Z,100047.47
2022-07-30T01:55:18.179Z,100052.84
2022-07-30T01:57:46.745Z,100059.84
2022-07-30T02:00:16.141Z,100050.81
2022-07-30T02:02:49.414Z,100052.06
2022-07-30T02:05:19.806Z,100052.84
2022-07-30T02:07:53.808Z,100056.91
2022-07-30T02:10:29.443Z,100044.97
2022-07-30T02:13:02.281Z,100043.78
2022-07-30T02:15:35.502Z,100049.97
2022-07-30T02:18:05.513Z,100052.06
2022-07-30T02:20:35.848Z,100057.69
2022-07-30T02:23:08.040Z,100061.44
2022-07-30T02:25:37.037Z,100052.34
2022-07-30T02:28:17.808Z,100052.13
2022-07-30T02:30:49.615Z,100053.38
2022-07-30T02:33:18.471Z,100054.81
2022-07-30T02:35:46.395Z,100054.56
2022-07-30T02:38:16.930Z,100055.34
2022-07-30T02:40:45.265Z,100062.63
2022-07-30T02:43:13.022Z,100055.63
2022-07-30T02:45:41.528Z,100063.59
2022-07-30T02:48:11.449Z,100057.38
2022-07-30T02:50:59.436Z,100061.41
2022-07-30T02:53:28.211Z,100062.13
2022-07-30T02:55:57.191Z,100064.53
2022-07-30T02:58:26.266Z,100060.81
2022-07-30T03:00:55.996Z,100056.66
2022-07-30T03:03:28.919Z,100066.78
2022-07-30T03:05:57.620Z,100071.19
2022-07-30T03:08:27.762Z,100068.38
2022-07-30T03:10:56.257Z,100067.50
2022-07-30T03:13:25.805Z,100070.63
2022-07-30T03:15:55.888Z,100068.59
2022-07-30T03:18:25.778Z,100071.94
2022-07-30T03:20:56.341Z,100081.59
2022-07-30T03:23:24.589Z,100071.38
2022-07-30T03:25:56.102Z,100078.44
2022-07-30T03:28:24.634Z,100075.88
2022-07-30T03:30:52.548Z,100073.75
2022-07-30T03:33:20.418Z,100079.88
2022-07-30T03:35:51.222Z,100073.28
2022-07-30T03:38:19.347Z,100078.66
2022-07-30T03:40:47.285Z,100077.75
2022-07-30T03:43:32.785Z,100078.81
2022-07-30T03:46:04.118Z,100083.97
2022-07-30T03:48:35.511Z,100081.50
2022-07-30T03:51:07.533Z,100089.03
2022-07-30T03:53:35.230Z,100091.00
2022-07-30T03:56:25.626Z,100090.13
2022-07-30T03:59:02.939Z,100085.66
2022-07-30T04:01:30.662Z,100087.88
2022-07-30T04:04:07.378Z,100097.22
2022-07-30T04:06:39.656Z,100090.22
2022-07-30T04:09:08.339Z,100099.44
2022-07-30T04:11:40.759Z,100102.03
2022-07-30T04:14:12.109Z,100109.28
2022-07-30T04:16:47.013Z,100108.50
2022-07-30T04:19:21.309Z,100115.06
2022-07-30T04:21:52.034Z,100117.03
2022-07-30T04:24:20.048Z,100110.16
2022-07-30T04:26:48.861Z,100120.03
2022-07-30T04:29:21.368Z,100117.06
2022-07-30T04:31:52.740Z,100116.88
2022-07-30T04:34:29.405Z,100123.84
2022-07-30T04:36:59.252Z,100125.38
2022-07-30T04:39:29.414Z,100130.25
2022-07-30T04:41:56.938Z,100132.88
2022-07-30T04:44:35.618Z,100131.00
2022-07-30T04:47:22.871Z,100129.63
2022-07-30T04:50:07.259Z,100126.81
2022-07-30T04:52:36.964Z,100131.75
2022-07-30T04:55:08.285Z,100130.28
2022-07-30T04:57:38.937Z,100132.75
2022-07-30T05:00:07.631Z,100134.56
2022-07-30T05:02:39.197Z,100130.84
2022-07-30T05:05:08.513Z,100139.69
2022-07-30T05:07:38.116Z,100139.47
2022-07-30T05:10:07.293Z,100146.06
2022-07-30T05:12:37.450Z,100139.69
2022-07-30T05:15:06.136Z,100144.16
2022-07-30T05:17:33.903Z,100140.34
2022-07-30T05:20:04.476Z,100138.78
2022-07-30T05:22:50.817Z,100138.22
2022-07-30T05:25:19.907Z,100141.97
2022-07-30T05:27:48.241Z,100146.50
2022-07-30T05:30:16.494Z,100145.97
2022-07-30T05:32:48.250Z,100143.69
2022-07-30T05:35:16.097Z,100145.44
2022-07-30T05:37:45.142Z,100147.09
2022-07-30T05:40:13.556Z,100147.91
2022-07-30T05:43:07.856Z,100148.41
2022-07-30T05:45:35.431Z,100147.75
2022-07-30T05:48:03.140Z,100151.22
2022-07-30T05:50:30.891Z,100150.13
2022-07-30T05:52:59.915Z,100160.50
2022-07-30T05:55:47.415Z,100165.56
2022-07-30T05:58:36.675Z,100162.97
2022-07-30T06:01:04.318Z,100166.34
2022-07-30T06:03:33.850Z,100166.78
2022-07-30T06:06:23.335Z,100162.38
2022-07-30T06:08:52.755Z,100164.84
2022-07-30T06:11:20.519Z,100159.69
2022-07-30T06:13:52.024Z,100168.78
2022-07-30T06:16:19.964Z,100172.69
2022-07-30T06:18:47.546Z,100160.56
2022-07-30T06:21:25.781Z,100165.09
2022-07-30T06:24:09.800Z,100172.06
2022-07-30T06:26:41.322Z,100167.94
2022-07-30T06:29:09.619Z,100168.50
2022-07-30T06:31:41.481Z,100179.97
2022-07-30T06:34:10.953Z,100179.91
2022-07-30T06:36:41.956Z,100189.16
2022-07-30T06:39:53.849Z,100195.13
2022-07-30T06:42:24.454Z,100194.19
2022-07-30T06:45:27.182Z,100190.13
2022-07-30T06:48:14.455Z,100178.25
2022-07-30T06:50:42.726Z,100185.31
2022-07-30T06:53:11.087Z,100180.00
2022-07-30T06:56:08.982Z,100186.50
2022-07-30T06:58:47.095Z,100176.41
2022-07-30T07:01:33.650Z,100172.38
2022-07-30T07:04:01.765Z,100179.59
2022-07-30T07:06:29.351Z,100175.22
2022-07-30T07:08:57.163Z,100179.75
2022-07-30T07:11:34.246Z,100177.63
2022-07-30T07:14:06.858Z,100181.38
2022-07-30T07:16:36.167Z,100188.19
2022-07-30T07:20:00.336Z,100189.63
2022-07-30T07:22:11.893Z,100178.13
2022-07-30T07:24:39.634Z,100180.88
2022-07-30T07:27:15.358Z,100176.63
2022-07-30T07:30:05.673Z,100186.38
2022-07-30T07:32:32.549Z,100179.81
2022-07-30T07:35:00.105Z,100181.22
2022-07-30T07:37:27.814Z,100183.59
2022-07-30T07:39:56.110Z,100185.13
2022-07-30T07:42:25.157Z,100178.63
2022-07-30T07:44:53.967Z,100167.44
2022-07-30T07:47:21.573Z,100180.06
2022-07-30T07:50:04.302Z,100178.44
2022-07-30T07:52:31.967Z,100179.81
2022-07-30T07:54:59.470Z,100175.25
2022-07-30T07:57:31.350Z,100171.78
2022-07-30T07:59:59.443Z,100171.47
2022-07-30T08:02:28.227Z,100169.31
2022-07-30T08:05:00.860Z,100175.66
2022-07-30T08:07:57.622Z,100175.47
2022-07-30T08:10:57.145Z,100174.00
2022-07-30T08:13:48.865Z,100171.06
2022-07-30T08:16:38.627Z,100172.75
2022-07-30T08:19:27.153Z,100169.16
2022-07-30T08:22:23.910Z,100172.44
2022-07-30T08:24:51.475Z,100165.53
2022-07-30T08:27:19.125Z,100162.16
2022-07-30T08:29:48.129Z,100162.88
2022-07-30T08:32:18.517Z,100160.91
2022-07-30T08:34:47.079Z,100159.50
2022-07-30T08:37:15.729Z,100158.41
2022-07-30T08:39:43.462Z,100161.03
2022-07-30T08:42:11.221Z,100165.75
2022-07-30T08:44:39.154Z,100163.41
2022-07-30T08:47:09.044Z,100165.03
2022-07-30T08:49:55.745Z,100163.38
2022-07-30T08:52:27.702Z,100166.97
2022-07-30T08:55:01.835Z,100168.97
2022-07-30T08:57:30.878Z,100163.81
2022-07-30T09:00:01.590Z,100165.81
2022-07-30T09:02:32.563Z,100167.53
2022-07-30T09:05:03.754Z,100169.53
2022-07-30T09:07:33.483Z,100167.44
2022-07-30T09:10:02.056Z,100166.69
2022-07-30T09:12:35.672Z,100171.50
2022-07-30T09:15:10.116Z,100174.69
2022-07-30T09:17:51.097Z,100175.50
2022-07-30T09:20:20.109Z,100163.16
2022-07-30T09:22:50.107Z,100172.69
2022-07-30T09:25:45.842Z,100172.72
2022-07-30T09:28:34.194Z,100171.63
2022-07-30T09:31:24.905Z,100176.88
2022-07-30T09:34:27.081Z,100168.78
2022-07-30T09:37:01.501Z,100173.63
2022-07-30T09:39:59.493Z,100183.97
2022-07-30T09:43:07.136Z,100180.19
2022-07-30T09:45:35.558Z,100181.06
2022-07-30T09:48:04.098Z,100182.25
2022-07-30T09:50:33.314Z,100178.66
2022-07-30T09:53:08.054Z,100186.09
2022-07-30T09:55:41.885Z,100191.00
2022-07-30T09:58:13.047Z,100181.25
2022-07-30T10:00:48.431Z,100192.13
2022-07-30T10:03:46.607Z,100181.81
2022-07-30T10:06:38.077Z,100182.97
2022-07-30T10:09:27.320Z,100192.53
2022-07-30T10:11:55.696Z,100194.38
2022-07-30T10:14:31.346Z,100183.25
2022-07-30T10:17:00.370Z,100182.53
2022-07-30T10:19:40.106Z,100183.59
2022-07-30T10:22:29.689Z,100189.38
2022-07-30T10:25:19.406Z,100191.34
2022-07-30T10:28:07.019Z,100182.91
2022-07-30T10:30:34.873Z,100182.19
2022-07-30T10:33:06.316Z,100181.44
2022-07-30T10:35:38.333Z,100188.44
2022-07-30T10:38:13.974Z,100196.53
2022-07-30T10:40:49.749Z,100190.75
2022-07-30T10:43:36.184Z,100197.50
2022-07-30T10:46:09.202Z,100197.94
2022-07-30T10:48:48.180Z,100194.75
2022-07-30T10:51:25.344Z,100199.09
2022-07-30T10:54:03.494Z,100196.16
2022-07-30T10:56:31.086Z,100192.69
2022-07-30T10:59:03.340Z,100191.13
2022-07-30T11:02:07.651Z,100184.03
2022-07-30T11:04:35.512Z,100182.56
2022-07-30T11:07:29.464Z,100184.59
2022-07-30T11:10:08.759Z,100182.72
2022-07-30T11:12:54.373Z,100183.97
2022-07-30T11:15:22.645Z,100195.69
2022-07-30T11:18:11.400Z,100191.16
2022-07-30T11:20:40.598Z,100182.41
2022-07-30T11:23:14.265Z,100189.66
2022-07-30T11:25:51.185Z,100177.53
2022-07-30T11:28:37.453Z,100178.69
2022-07-30T11:31:10.086Z,100178.06
2022-07-30T11:33:39.147Z,100173.44
2022-07-30T11:36:10.634Z,100167.16
2022-07-30T11:38:59.934Z,100167.56
2022-07-30T11:41:36.094Z,100167.31
2022-07-30T11:44:29.277Z,100168.44
2022-07-30T11:46:57.029Z,100167.28
2022-07-30T11:49:24.597Z,100165.88
2022-07-30T11:51:52.219Z,100164.41
2022-07-30T11:54:19.803Z,100169.31
2022-07-30T11:56:53.187Z,100162.84
2022-07-30T11:59:20.806Z,100165.38
2022-07-30T12:01:52.801Z,100159.13
2022-07-30T12:04:20.588Z,100162.78
2022-07-30T12:06:49.182Z,100163.97
2022-07-30T12:09:23.598Z,100164.31
2022-07-30T12:11:57.048Z,100167.06
2022-07-30T12:14:24.690Z,100158.13
2022-07-30T12:16:54.047Z,100161.50
2022-07-30T12:19:21.826Z,100159.31
2022-07-30T12:21:53.315Z,100160.72
2022-07-30T12:24:26.434Z,100162.38
2022-07-30T12:26:54.211Z,100152.06
2022-07-30T12:29:23.005Z,100159.03
2022-07-30T12:31:53.445Z,100155.41
2022-07-30T12:34:21.841Z,100151.47
2022-07-30T12:36:49.485Z,100150.78
2022-07-30T12:39:21.129Z,100151.69
2022-07-30T12:41:50.391Z,100152.09
2022-07-30T12:44:38.625Z,100153.16
2022-07-30T12:47:07.718Z,100147.97
2022-07-30T12:49:36.583Z,100149.28
2022-07-30T12:52:13.268Z,100146.56
2022-07-30T12:54:46.146Z,100146.38
2022-07-30T12:57:13.633Z,100149.75
2022-07-30T12:59:42.478Z,100153.69
2022-07-30T13:02:10.017Z,100148.28
2022-07-30T13:04:59.160Z,100144.53
2022-07-30T13:07:53.936Z,100146.41
2022-07-30T13:10:21.669Z,100144.25
2022-07-30T13:12:49.167Z,100147.72
2022-07-30T13:15:22.003Z,100150.47
2022-07-30T13:17:50.296Z,100147.66
2022-07-30T13:20:18.435Z,100144.19
2022-07-30T13:22:46.306Z,100152.25
2022-07-30T13:25:14.091Z,100149.38
2022-07-30T13:27:41.561Z,100146.91
2022-07-30T13:30:10.560Z,100149.03
2022-07-30T13:32:39.447Z,100146.72
2022-07-30T13:35:07.688Z,100157.50
2022-07-30T13:37:37.616Z,100157.53
2022-07-30T13:40:06.893Z,100155.94
2022-07-30T13:42:34.847Z,100149.84
2022-07-30T13:45:02.457Z,100157.84
2022-07-30T13:47:29.955Z,100159.09
2022-07-30T13:49:58.779Z,100148.94
2022-07-30T13:52:26.580Z,100155.56
2022-07-30T13:54:54.464Z,100150.75
2022-07-30T13:57:22.020Z,100159.38
2022-07-30T13:59:49.625Z,100149.81
2022-07-30T14:02:17.501Z,100140.56
2022-07-30T14:04:45.077Z,100152.53
2022-07-30T14:07:13.965Z,100151.69
2022-07-30T14:09:47.056Z,100157.00
2022-07-30T14:12:16.049Z,100151.03
2022-07-30T14:14:43.582Z,100145.63
2022-07-30T14:17:11.155Z,100156.47
2022-07-30T14:19:41.196Z,100155.63
2022-07-30T14:22:08.931Z,100154.16
2022-07-30T14:24:37.725Z,100160.69
2022-07-30T14:27:05.969Z,100158.28
2022-07-30T14:29:33.842Z,100149.78
2022-07-30T14:32:01.406Z,100160.22
2022-07-30T14:34:29.105Z,100157.88
2022-07-30T14:36:56.631Z,100152.72
2022-07-30T14:39:24.893Z,100147.47
2022-07-30T14:41:55.781Z,100153.47
2022-07-30T14:44:23.896Z,100150.63
2022-07-30T14:46:52.663Z,100144.59
2022-07-30T14:49:20.780Z,100148.97
2022-07-30T14:51:48.500Z,100148.75
2022-07-30T14:54:16.498Z,100146.94
2022-07-30T14:56:44.060Z,100149.41
2022-07-30T14:59:14.355Z,100152.56
2022-07-30T15:01:42.154Z,100140.50
2022-07-30T15:04:11.402Z,100151.31
2022-07-30T15:06:40.708Z,100142.41
2022-07-30T15:09:08.831Z,100148.81
2022-07-30T15:12:04.310Z,100150.13
2022-07-30T15:14:26.875Z,100147.09
2022-07-30T15:16:59.374Z,100140.97
2022-07-30T15:19:30.938Z,100142.44
2022-07-30T15:21:58.895Z,100134.00
2022-07-30T15:24:26.976Z,100140.47
2022-07-30T15:26:55.855Z,100139.13
2022-07-30T15:29:27.190Z,100138.50
2022-07-30T15:31:54.733Z,100146.06
2022-07-30T15:34:22.393Z,100148.78
2022-07-30T15:36:49.879Z,100154.44
2022-07-30T15:39:17.479Z,100143.56
2022-07-30T15:41:45.988Z,100143.44
2022-07-30T15:44:14.750Z,100139.88
2022-07-30T15:46:43.574Z,100135.75
2022-07-30T15:49:11.167Z,100146.28
2022-07-30T15:51:43.725Z,100135.16
2022-07-30T15:54:11.306Z,100144.28
2022-07-30T15:56:38.921Z,100138.81
2022-07-30T15:59:07.081Z,100138.22
2022-07-30T16:01:34.666Z,100141.28
2022-07-30T16:04:03.930Z,100130.16
2022-07-30T16:06:32.324Z,100130.53
2022-07-30T16:09:00.163Z,100137.44
2022-07-30T16:11:27.730Z,100138.69
2022-07-30T16:14:00.558Z,100132.28
2022-07-30T16:16:28.201Z,100140.28
2022-07-30T16:18:55.880Z,100140.00
2022-07-30T16:21:24.795Z,100139.28
2022-07-30T16:23:53.582Z,100139.53
2022-07-30T16:26:21.577Z,100146.03
2022-07-30T16:28:49.304Z,100140.53
2022-07-30T16:31:17.072Z,100135.88
2022-07-30T16:33:44.868Z,100141.19
2022-07-30T16:36:14.167Z,100151.94
2022-07-30T16:38:43.079Z,100147.59
2022-07-30T16:41:13.366Z,100145.66
2022-07-30T16:43:41.832Z,100149.53
2022-07-30T16:46:10.803Z,100159.94
2022-07-30T16:48:38.313Z,100144.06
2022-07-30T16:51:06.942Z,100158.50
2022-07-30T16:53:36.277Z,100153.34
2022-07-30T16:56:05.866Z,100155.28
2022-07-30T16:58:33.699Z,100164.03
2022-07-30T17:01:01.507Z,100150.09
2022-07-30T17:03:29.143Z,100154.97
2022-07-30T17:05:56.655Z,100154.41
2022-07-30T17:08:24.656Z,100156.34
2022-07-30T17:10:52.926Z,100156.75
2022-07-30T17:13:22.617Z,100163.72
2022-07-30T17:15:50.213Z,100159.34
2022-07-30T17:18:17.869Z,100161.03
2022-07-30T17:20:45.470Z,100153.13
2022-07-30T17:23:13.566Z,100158.22
2022-07-30T17:25:41.103Z,100156.06
2022-07-30T17:28:08.701Z,100164.53
2022-07-30T17:30:37.569Z,100161.44
2022-07-30T17:33:06.218Z,100161.19
2022-07-30T17:35:34.133Z,100172.81
2022-07-30T17:38:01.973Z,100167.03
2022-07-30T17:40:31.598Z,100166.97
2022-07-30T17:43:03.390Z,100169.47
2022-07-30T17:45:31.583Z,100170.00
2022-07-30T17:48:01.425Z,100171.25
2022-07-30T17:50:29.320Z,100172.91
2022-07-30T17:52:56.888Z,100171.63
2022-07-30T17:55:24.634Z,100178.66
2022-07-30T17:57:52.192Z,100183.38
2022-07-30T18:00:19.741Z,100187.81
2022-07-30T18:02:47.285Z,100180.53
2022-07-30T18:05:16.311Z,100191.97
2022-07-30T18:07:44.672Z,100182.97
2022-07-30T18:10:12.716Z,100189.44
2022-07-30T18:12:48.899Z,100181.88
2022-07-30T18:15:17.439Z,100190.47
2022-07-30T18:17:45.585Z,100194.78
2022-07-30T18:20:13.286Z,100201.88
2022-07-30T18:22:42.250Z,100199.72
2022-07-30T18:25:18.760Z,100200.03
2022-07-30T18:27:47.238Z,100195.63
2022-07-30T18:30:15.230Z,100199.19
2022-07-30T18:32:42.765Z,100210.28
2022-07-30T18:35:14.165Z,100211.91
2022-07-30T18:37:45.767Z,100207.28
2022-07-30T18:40:14.922Z,100212.16
2022-07-30T18:42:42.999Z,100214.75
2022-07-30T18:45:13.773Z,100207.91
2022-07-30T18:47:41.818Z,100205.56
2022-07-30T18:50:09.956Z,100212.19
2022-07-30T18:52:37.583Z,100212.06
2022-07-30T18:55:08.179Z,100214.56
2022-07-30T18:57:36.154Z,100216.56
2022-07-30T19:00:05.777Z,100219.97
2022-07-30T19:02:35.481Z,100222.09
2022-07-30T19:05:03.027Z,100224.06
2022-07-30T19:07:30.832Z,100219.84
2022-07-30T19:10:20.194Z,100224.53
2022-07-30T19:12:47.731Z,100226.03
2022-07-30T19:15:15.371Z,100220.44
2022-07-30T19:17:46.280Z,100223.22
2022-07-30T19:20:14.531Z,100235.66
2022-07-30T19:22:46.693Z,100238.13
2022-07-30T19:25:14.720Z,100239.59
2022-07-30T19:27:43.811Z,100243.94
2022-07-30T19:30:12.566Z,100253.44
2022-07-30T19:32:40.391Z,100251.44
2022-07-30T19:35:13.273Z,100256.75
2022-07-30T19:37:42.289Z,100254.66
2022-07-30T19:40:10.920Z,100254.91
2022-07-30T19:42:41.529Z,100262.84
2022-07-30T19:45:13.330Z,100266.56
2022-07-30T19:47:42.417Z,100272.91
2022-07-30T19:50:11.535Z,100272.47
2022-07-30T19:52:39.496Z,100280.56
2022-07-30T19:55:30.860Z,100279.53
2022-07-30T19:57:56.195Z,100283.13
2022-07-30T20:00:26.351Z,100286.28
2022-07-30T20:02:54.120Z,100282.41
2022-07-30T20:05:24.678Z,100289.25
2022-07-30T20:07:52.713Z,100292.22
2022-07-30T20:10:20.301Z,100292.28
2022-07-30T20:12:49.658Z,100293.38
2022-07-30T20:15:18.298Z,100304.84
2022-07-30T20:17:47.210Z,100304.31
2022-07-30T20:20:14.845Z,100296.88
2022-07-30T20:22:42.445Z,100307.53
2022-07-30T20:25:11.113Z,100310.56
2022-07-30T20:27:41.265Z,100310.78
2022-07-30T20:30:11.921Z,100314.31
2022-07-30T20:32:44.671Z,100308.13
2022-07-30T20:35:15.894Z,100306.44
2022-07-30T20:37:55.596Z,100309.34
2022-07-30T20:40:26.824Z,100307.09
2022-07-30T20:42:55.009Z,100315.47
2022-07-30T20:45:24.766Z,100311.34
2022-07-30T20:47:57.369Z,100310.50
2022-07-30T20:50:30.636Z,100311.84
2022-07-30T20:52:59.165Z,100317.00
2022-07-30T20:55:26.810Z,100315.31
2022-07-30T20:57:58.075Z,100314.47
2022-07-30T21:00:49.817Z,100299.44
2022-07-30T21:03:21.480Z,100316.00
2022-07-30T21:05:52.866Z,100319.81
2022-07-30T21:08:21.168Z,100322.25
2022-07-30T21:10:53.074Z,100326.31
2022-07-30T21:13:22.859Z,100325.88
2022-07-30T21:16:03.059Z,100324.94
2022-07-30T21:18:31.604Z,100325.00
2022-07-30T21:21:04.976Z,100318.09
2022-07-30T21:23:33.539Z,100320.03
2022-07-30T21:26:04.936Z,100320.47
2022-07-30T21:28:35.136Z,100318.00
2022-07-30T21:31:03.970Z,100320.22
2022-07-30T21:33:34.787Z,100316.25
2022-07-30T21:36:03.782Z,100317.41
2022-07-30T21:38:31.764Z,100328.78
2022-07-30T21:41:00.141Z,100330.56
2022-07-30T21:43:29.982Z,100324.59
2022-07-30T21:45:58.117Z,100324.16
2022-07-30T21:48:26.014Z,100321.84
2022-07-30T21:50:54.419Z,100320.28
2022-07-30T21:53:29.963Z,100335.28
2022-07-30T21:56:12.067Z,100331.41
2022-07-30T21:58:40.784Z,100336.81
2022-07-30T22:01:17.467Z,100332.41
2022-07-30T22:04:03.379Z,100332.41
2022-07-30T22:06:34.352Z,100334.56
2022-07-30T22:09:18.322Z,100341.28
2022-07-30T22:11:50.919Z,100325.84
2022-07-30T22:14:18.452Z,100343.63
2022-07-30T22:16:46.996Z,100334.13
2022-07-30T22:19:15.025Z,100329.41
2022-07-30T22:21:42.827Z,100326.72
2022-07-30T22:24:29.154Z,100327.06
2022-07-30T22:27:00.004Z,100329.53
2022-07-30T22:29:34.121Z,100334.91
2022-07-30T22:32:03.906Z,100329.41
2022-07-30T22:34:31.989Z,100323.50
2022-07-30T22:36:59.516Z,100318.38
2022-07-30T22:39:31.772Z,100318.63
2022-07-30T22:42:00.789Z,100319.44
2022-07-30T22:44:28.843Z,100320.19
2022-07-30T22:46:56.647Z,100311.91
2022-07-30T22:49:46.072Z,100312.34
2022-07-30T22:52:21.999Z,100310.28
2022-07-30T22:54:55.475Z,100315.38
2022-07-30T22:57:23.560Z,100309.03
2022-07-30T22:59:58.700Z,100303.38
2022-07-30T23:02:28.295Z,100297.06
2022-07-30T23:04:56.414Z,100305.34
2022-07-30T23:07:44.245Z,100300.59
2022-07-30T23:10:20.775Z,100299.59
2022-07-30T23:12:50.909Z,100298.97
2022-07-30T23:15:19.650Z,100290.16
2022-07-30T23:17:47.529Z,100301.75
2022-07-30T23:20:17.501Z,100296.97
2022-07-30T23:22:45.171Z,100302.00
2022-07-30T23:25:13.476Z,100299.91
2022-07-30T23:27:43.041Z,100300.63
2022-07-30T23:30:12.302Z,100294.28
2022-07-30T23:32:40.700Z,100295.84
2022-07-30T23:35:09.681Z,100295.44
2022-07-30T23:37:47.678Z,100290.13
2022-07-30T23:40:17.084Z,100288.59
2022-07-30T23:42:45.952Z,100286.63
2022-07-30T23:45:14.493Z,100287.78
2022-07-30T23:48:02.081Z,100282.66
2022-07-30T23:50:30.586Z,100282.28
2022-07-30T23:52:58.297Z,100277.34
2022-07-30T23:55:26.899Z,100287.91
2022-07-30T23:57:55.936Z,100275.91
